Time;durP1;ratioP1;P1;durP2;ratioP2;P2;SDS_P1;SDS_P2;PMS_P1;PMS_P2;Temp;Humidity;BMP_temperature;BMP_pressure;BME280_temperature;BME280_humidity;BME280_pressure;Samples;Min_cycle;Max_cycle;Signal;HPM_P1;HPM_P2
2023/11/08 00:00:08;;;;;;;8.80;5.70;;;;;;;4.38;100.00;100898.34;104972;1268;66933;-55
2023/11/08 00:02:40;;;;;;;7.50;5.00;;;;;;;4.37;100.00;100896.33;104904;1266;71701;-58
2023/11/08 00:05:08;;;;;;;7.20;5.10;;;;;;;4.37;100.00;100903.21;104564;1269;59750;-55
2023/11/08 00:07:35;;;;;;;9.10;5.50;;;;;;;4.34;100.00;100898.66;106620;1264;60548;-55
2023/11/08 00:10:04;;;;;;;10.00;5.30;;;;;;;4.29;100.00;100898.52;106860;1267;73083;-55
2023/11/08 00:12:32;;;;;;;11.90;7.10;;;;;;;4.24;100.00;100894.17;104915;1267;66835;-54
2023/11/08 00:15:00;;;;;;;12.20;6.70;;;;;;;4.19;100.00;100894.56;104916;1263;72771;-55
2023/11/08 00:17:28;;;;;;;10.10;6.30;;;;;;;4.12;100.00;100893.39;104946;1263;61065;-57
2023/11/08 00:19:56;;;;;;;12.50;6.30;;;;;;;4.04;100.00;100898.30;104942;1269;60025;-55
2023/11/08 00:22:24;;;;;;;9.60;5.70;;;;;;;3.98;100.00;100902.11;104924;1268;73022;-57
2023/11/08 00:24:51;;;;;;;13.80;6.90;;;;;;;3.93;100.00;100904.77;104949;1264;65790;-57
2023/11/08 00:27:19;;;;;;;9.40;6.30;;;;;;;3.90;100.00;100908.30;104664;1264;72296;-54
2023/11/08 00:29:48;;;;;;;11.70;7.40;;;;;;;3.85;100.00;100909.72;105123;1264;60092;-54
2023/11/08 00:32:21;;;;;;;13.30;7.60;;;;;;;3.79;100.00;100907.93;105337;1260;60102;-57
2023/11/08 00:34:49;;;;;;;8.70;5.80;;;;;;;3.75;100.00;100898.14;105072;1265;72036;-57
2023/11/08 00:37:18;;;;;;;9.40;6.10;;;;;;;3.70;100.00;100896.51;104872;1264;67056;-55
2023/11/08 00:39:47;;;;;;;10.30;6.20;;;;;;;3.65;100.00;100892.37;104879;1264;72731;-54
2023/11/08 00:42:15;;;;;;;8.80;5.80;;;;;;;3.61;100.00;100886.13;105190;1264;59669;-54
2023/11/08 00:44:43;;;;;;;9.80;5.10;;;;;;;3.59;100.00;100886.67;105190;1260;60068;-54
2023/11/08 00:47:10;;;;;;;9.40;6.00;;;;;;;3.58;100.00;100892.80;105072;1260;70550;-57
2023/11/08 00:49:38;;;;;;;9.00;5.60;;;;;;;3.55;100.00;100896.78;105079;1265;66941;-56
2023/11/08 00:52:06;;;;;;;10.10;5.70;;;;;;;3.53;100.00;100898.48;105098;1265;71733;-56
2023/11/08 00:54:34;;;;;;;10.60;5.90;;;;;;;3.53;100.00;100891.97;105108;1261;59763;-56
2023/11/08 00:57:02;;;;;;;9.60;5.50;;;;;;;3.55;100.00;100889.55;105113;1261;59692;-57
2023/11/08 00:59:29;;;;;;;10.80;5.70;;;;;;;3.57;100.00;100889.54;105206;1257;73147;-56
2023/11/08 01:01:57;;;;;;;9.30;6.30;;;;;;;3.58;100.00;100889.00;105056;1260;67370;-56
2023/11/08 01:04:25;;;;;;;12.40;6.30;;;;;;;3.59;100.00;100890.43;105257;1257;71430;-56
2023/11/08 01:06:53;;;;;;;11.00;6.40;;;;;;;3.55;100.00;100883.69;105394;1263;59667;-56
2023/11/08 01:09:20;;;;;;;10.90;6.50;;;;;;;3.56;100.00;100879.00;105177;1256;60478;-54
2023/11/08 01:11:49;;;;;;;9.00;5.80;;;;;;;3.58;100.00;100879.15;105305;1259;73130;-56
2023/11/08 01:14:16;;;;;;;11.20;6.60;;;;;;;3.60;100.00;100883.16;105603;1260;66910;-56
2023/11/08 01:16:45;;;;;;;10.80;7.20;;;;;;;3.64;100.00;100884.58;105211;1261;72729;-56
2023/11/08 01:19:13;;;;;;;11.80;7.00;;;;;;;3.67;100.00;100876.92;105100;1261;60455;-57
2023/11/08 01:21:45;;;;;;;11.70;6.80;;;;;;;3.73;100.00;100875.45;105214;1257;60003;-56
2023/11/08 01:24:13;;;;;;;13.50;8.00;;;;;;;3.76;100.00;100871.08;105236;1257;73292;-56
2023/11/08 01:26:42;;;;;;;14.60;9.20;;;;;;;3.81;100.00;100866.53;105691;1254;67127;-58
2023/11/08 01:29:09;;;;;;;14.60;8.90;;;;;;;3.86;100.00;100862.66;105637;1258;73383;-54
2023/11/08 01:31:37;;;;;;;13.90;8.10;;;;;;;3.89;100.00;100865.88;105559;1257;60420;-57
2023/11/08 01:34:05;;;;;;;14.10;8.40;;;;;;;3.93;100.00;100864.90;105345;1254;62367;-56
2023/11/08 01:36:34;;;;;;;14.80;8.80;;;;;;;3.96;100.00;100865.64;106152;1253;73093;-54
2023/11/08 01:39:03;;;;;;;14.90;9.50;;;;;;;4.01;100.00;100858.37;105817;1255;65706;-57
2023/11/08 01:41:30;;;;;;;14.50;9.30;;;;;;;4.08;100.00;100856.08;105498;1254;72717;-57
2023/11/08 01:43:59;;;;;;;15.10;9.10;;;;;;;4.17;100.00;100855.51;105513;1256;60636;-56
2023/11/08 01:46:27;;;;;;;14.10;9.70;;;;;;;4.24;100.00;100852.16;105792;1251;60160;-56
2023/11/08 01:48:55;;;;;;;19.20;10.20;;;;;;;4.29;100.00;100848.48;105864;1256;73110;-56
2023/11/08 01:51:23;;;;;;;17.60;10.00;;;;;;;4.33;100.00;100850.21;105732;1258;66718;-57
2023/11/08 01:53:52;;;;;;;13.70;9.20;;;;;;;4.37;100.00;100850.34;105580;1254;72751;-56
2023/11/08 01:56:20;;;;;;;15.10;9.50;;;;;;;4.39;100.00;100845.22;105611;1257;61626;-56
2023/11/08 01:58:48;;;;;;;15.60;9.20;;;;;;;4.42;100.00;100844.50;105710;1253;60051;-56
2023/11/08 02:01:16;;;;;;;14.40;9.50;;;;;;;4.46;100.00;100845.34;105189;1251;71828;-57
2023/11/08 02:03:44;;;;;;;14.70;8.80;;;;;;;4.48;100.00;100839.77;105633;1257;66923;-56
2023/11/08 02:06:12;;;;;;;18.50;9.00;;;;;;;4.49;100.00;100837.02;105616;1254;72725;-57
2023/11/08 02:08:41;;;;;;;13.30;8.40;;;;;;;4.50;100.00;100843.28;105659;1258;59714;-57
2023/11/08 02:11:09;;;;;;;16.10;8.90;;;;;;;4.47;100.00;100846.63;105604;1253;60052;-57
2023/11/08 02:13:37;;;;;;;12.80;8.60;;;;;;;4.42;100.00;100856.48;105685;1256;71874;-56
2023/11/08 02:16:05;;;;;;;13.50;8.70;;;;;;;4.39;100.00;100867.96;105394;1258;65633;-56
2023/11/08 02:18:33;;;;;;;14.90;8.40;;;;;;;4.38;100.00;100861.13;105616;1255;72030;-57
2023/11/08 02:21:01;;;;;;;14.50;8.30;;;;;;;4.39;100.00;100858.48;105551;1257;59902;-56
2023/11/08 02:23:31;;;;;;;14.40;8.30;;;;;;;4.39;100.00;100854.16;105806;1254;59670;-56
2023/11/08 02:25:59;;;;;;;14.40;8.70;;;;;;;4.41;100.00;100855.59;105676;1253;72088;-56
2023/11/08 02:28:27;;;;;;;15.80;8.30;;;;;;;4.42;100.00;100863.08;105570;1257;65774;-57
2023/11/08 02:30:55;;;;;;;13.60;8.50;;;;;;;4.41;100.00;100854.66;105671;1257;73269;-56
2023/11/08 02:33:24;;;;;;;13.50;8.70;;;;;;;4.43;100.00;100855.39;105573;1253;60985;-57
2023/11/08 02:43:35;;;;;;;14.70;8.50;;;;;;;4.50;100.00;100860.01;102390;1291;600851;-56
2023/11/08 02:46:04;;;;;;;15.30;9.30;;;;;;;4.49;100.00;100853.69;104942;1267;59177;-57
2023/11/08 02:48:32;;;;;;;15.60;9.60;;;;;;;4.48;100.00;100849.48;104765;1266;60061;-56
2023/11/08 02:51:00;;;;;;;11.50;7.60;;;;;;;4.48;100.00;100848.80;104875;1265;71007;-57
2023/11/08 02:53:30;;;;;;;13.80;8.90;;;;;;;4.50;100.00;100850.16;105235;1256;65947;-57
2023/11/08 02:55:58;;;;;;;15.90;9.20;;;;;;;4.51;100.00;100855.09;105447;1259;71336;-57
2023/11/08 02:58:26;;;;;;;13.50;8.10;;;;;;;4.54;100.00;100857.39;105281;1256;61178;-57
2023/11/08 03:00:56;;;;;;;15.30;8.00;;;;;;;4.60;100.00;100861.70;105526;1251;60114;-57
2023/11/08 03:03:24;;;;;;;13.70;7.70;;;;;;;4.66;100.00;100857.08;105714;1254;71031;-58
2023/11/08 03:05:52;;;;;;;13.20;8.50;;;;;;;4.72;100.00;100851.89;106076;1253;67039;-58
2023/11/08 03:08:19;;;;;;;14.60;8.30;;;;;;;4.82;100.00;100851.95;105414;1256;71498;-58
2023/11/08 03:10:47;;;;;;;14.50;8.50;;;;;;;4.89;100.00;100849.92;105690;1256;59740;-57
2023/11/08 03:13:15;;;;;;;15.00;8.90;;;;;;;4.94;100.00;100844.84;105682;1256;59691;-57
2023/11/08 03:15:43;;;;;;;15.20;9.30;;;;;;;5.00;100.00;100846.27;105712;1256;73134;-55
2023/11/08 03:18:11;;;;;;;13.80;7.90;;;;;;;5.03;100.00;100842.67;105632;1253;66832;-55
2023/11/08 03:20:39;;;;;;;15.60;9.50;;;;;;;5.07;100.00;100840.79;105742;1254;72742;-55
2023/11/08 03:23:07;;;;;;;15.10;8.30;;;;;;;5.08;100.00;100845.34;105567;1253;59494;-55
2023/11/08 03:25:35;;;;;;;12.30;8.00;;;;;;;5.06;100.00;100849.16;105622;1251;60094;-55
2023/11/08 03:28:04;;;;;;;12.80;8.20;;;;;;;5.00;100.00;100844.73;105869;1251;71837;-55
2023/11/08 03:30:31;;;;;;;13.00;8.40;;;;;;;4.93;100.00;100840.84;105519;1253;66984;-57
2023/11/08 03:33:00;;;;;;;14.60;8.40;;;;;;;4.87;100.00;100840.16;105742;1251;72719;-55
2023/11/08 03:35:29;;;;;;;13.20;7.80;;;;;;;4.81;100.00;100839.27;105681;1256;59798;-55
2023/11/08 03:37:57;;;;;;;14.10;9.60;;;;;;;4.73;100.00;100844.58;105716;1251;59657;-55
2023/11/08 03:40:27;;;;;;;74.80;35.60;;;;;;;4.63;100.00;100845.27;105687;1256;73058;-55
2023/11/08 03:42:56;;;;;;;93.70;44.30;;;;;;;4.53;100.00;100839.89;105723;1256;66792;-55
2023/11/08 03:45:24;;;;;;;40.00;20.20;;;;;;;4.46;100.00;100839.84;105704;1253;72727;-57
2023/11/08 03:47:52;;;;;;;23.70;12.80;;;;;;;4.39;100.00;100840.73;105604;1253;60124;-55
2023/11/08 03:50:20;;;;;;;17.60;10.20;;;;;;;4.32;100.00;100834.27;105674;1253;59705;-57
2023/11/08 03:52:47;;;;;;;14.90;9.00;;;;;;;4.25;100.00;100832.46;105548;1257;73118;-54
2023/11/08 03:55:15;;;;;;;17.70;8.80;;;;;;;4.18;100.00;100831.71;105622;1252;66902;-54
2023/11/08 03:57:43;;;;;;;15.10;8.90;;;;;;;4.12;100.00;100831.48;105638;1253;71142;-57
2023/11/08 04:00:12;;;;;;;15.10;8.30;;;;;;;4.07;100.00;100828.61;105640;1253;61734;-54
2023/11/08 04:02:39;;;;;;;13.00;8.60;;;;;;;4.03;100.00;100825.48;105661;1257;59654;-57
2023/11/08 04:05:07;;;;;;;12.60;8.20;;;;;;;4.01;100.00;100825.01;105629;1252;71860;-57
2023/11/08 04:07:35;;;;;;;16.60;8.40;;;;;;;3.98;100.00;100826.30;105677;1257;65342;-54
2023/11/08 04:10:03;;;;;;;13.50;7.80;;;;;;;3.95;100.00;100831.15;105690;1253;72644;-54
2023/11/08 04:12:31;;;;;;;12.90;7.40;;;;;;;3.92;100.00;100835.16;105725;1259;60886;-57
2023/11/08 04:14:59;;;;;;;13.10;7.50;;;;;;;3.90;100.00;100836.74;105607;1254;59609;-55
2023/11/08 04:17:27;;;;;;;12.20;7.70;;;;;;;3.89;100.00;100839.70;105660;1253;71840;-55
2023/11/08 04:19:55;;;;;;;15.60;8.80;;;;;;;3.89;100.00;100837.84;105475;1253;67079;-55
2023/11/08 04:29:59;;;;;;;13.40;7.40;;;;;;;3.97;100.00;100843.38;103108;1286;601251;-56
2023/11/08 04:32:27;;;;;;;12.80;7.70;;;;;;;4.00;100.00;100844.99;104576;1267;60014;-55
2023/11/08 04:34:55;;;;;;;12.40;7.70;;;;;;;4.02;100.00;100854.63;104920;1269;59455;-55
2023/11/08 04:37:23;;;;;;;12.80;6.80;;;;;;;4.05;100.00;100862.34;104808;1269;72309;-56
2023/11/08 04:47:26;;;;;;;10.60;6.80;;;;;;;4.56;100.00;100871.98;102336;1292;602021;-55
2023/11/08 04:49:54;;;;;;;11.20;6.80;;;;;;;4.74;100.00;100872.78;104767;1266;59331;-56
2023/11/08 04:52:21;;;;;;;13.40;7.70;;;;;;;4.96;100.00;100865.53;104711;1266;60064;-56
2023/11/08 04:54:52;;;;;;;14.90;8.80;;;;;;;5.19;100.00;100863.59;104852;1267;72728;-56
2023/11/08 04:57:21;;;;;;;16.80;9.70;;;;;;;5.43;100.00;100865.60;104734;1271;67529;-56
2023/11/08 04:59:49;;;;;;;12.90;8.60;;;;;;;5.67;100.00;100866.95;104761;1269;71631;-58
2023/11/08 05:02:18;;;;;;;14.00;7.90;;;;;;;5.91;100.00;100867.37;104903;1264;59504;-58
2023/11/08 05:04:48;;;;;;;11.30;6.60;;;;;;;6.18;100.00;100865.30;104948;1264;60724;-57
2023/11/08 05:14:56;;;;;;;10.00;6.10;;;;;;;7.76;100.00;100861.98;102416;1294;600839;-56
2023/11/08 05:17:24;;;;;;;11.60;6.20;;;;;;;8.47;100.00;100851.10;104834;1270;60062;-56
2023/11/08 05:19:52;;;;;;;10.80;6.70;;;;;;;9.17;100.00;100841.43;104787;1270;59324;-57
2023/11/08 05:22:20;;;;;;;10.30;6.50;;;;;;;9.74;100.00;100846.34;104988;1265;71042;-57
2023/11/08 05:24:48;;;;;;;11.30;6.40;;;;;;;9.89;100.00;100845.04;105565;1254;67020;-57
2023/11/08 05:27:18;;;;;;;13.80;7.70;;;;;;;9.76;100.00;100839.30;105531;1253;72884;-57
2023/11/08 05:29:46;;;;;;;12.60;6.20;;;;;;;9.54;100.00;100838.75;105640;1257;214368;-57
2023/11/08 05:32:17;;;;;;;11.50;6.50;;;;;;;9.24;100.00;100832.67;105811;1251;60926;-57
2023/11/08 05:34:45;;;;;;;11.30;6.70;;;;;;;8.94;100.00;100828.54;105889;1256;72288;-57
2023/11/08 05:37:14;;;;;;;10.90;6.60;;;;;;;8.63;100.00;100824.04;105730;1251;66062;-58
2023/11/08 05:39:45;;;;;;;9.00;5.80;;;;;;;8.38;100.00;100816.73;105738;1251;73154;-56
2023/11/08 05:42:14;;;;;;;10.40;6.40;;;;;;;8.50;100.00;100813.06;105781;1256;59723;-57
2023/11/08 05:44:42;;;;;;;12.80;6.50;;;;;;;9.11;100.00;100810.09;105944;1250;62447;-57
2023/11/08 05:47:10;;;;;;;9.70;5.40;;;;;;;9.90;100.00;100804.90;105749;1251;71724;-57
2023/11/08 05:49:38;;;;;;;10.20;5.90;;;;;;;10.74;100.00;100803.64;105859;1253;66927;-57
2023/11/08 05:52:06;;;;;;;8.30;5.10;;;;;;;11.58;100.00;100808.59;105713;1251;72707;-56
2023/11/08 05:54:34;;;;;;;10.30;6.10;;;;;;;12.28;100.00;100802.62;105871;1256;60118;-57
2023/11/08 05:57:02;;;;;;;8.90;5.40;;;;;;;12.89;100.00;100795.02;105823;1251;60512;-57
2023/11/08 05:59:30;;;;;;;9.40;5.30;;;;;;;13.41;100.00;100775.55;105806;1250;71868;-56
2023/11/08 06:01:57;;;;;;;9.40;5.40;;;;;;;14.00;100.00;100756.50;105666;1251;67068;-57
2023/11/08 06:04:25;;;;;;;12.40;6.10;;;;;;;14.67;100.00;100738.04;105911;1256;72470;-58
2023/11/08 06:06:53;;;;;;;8.20;5.10;;;;;;;15.32;100.00;100716.64;105794;1255;59730;-56
2023/11/08 06:09:21;;;;;;;10.00;6.20;;;;;;;15.87;100.00;100696.48;105756;1253;60352;-57
2023/11/08 06:11:50;;;;;;;9.70;6.40;;;;;;;16.26;100.00;100672.44;105962;1251;73545;-57
2023/11/08 06:14:18;;;;;;;12.20;7.50;;;;;;;16.47;100.00;100647.83;105915;1252;65712;-57
2023/11/08 06:16:46;;;;;;;9.80;6.10;;;;;;;16.58;100.00;100641.77;105854;1255;75186;-57
2023/11/08 06:19:13;;;;;;;11.30;6.20;;;;;;;16.68;100.00;100634.62;105680;1250;62713;-57
2023/11/08 06:21:42;;;;;;;9.60;6.90;;;;;;;16.85;100.00;100620.61;105863;1255;61472;-56
2023/11/08 06:24:10;;;;;;;10.90;7.40;;;;;;;17.03;100.00;100616.48;105624;1253;74404;-54
2023/11/08 06:26:38;;;;;;;9.10;6.50;;;;;;;17.10;100.00;100612.65;105529;1254;68661;-54
2023/11/08 06:29:06;;;;;;;11.10;6.60;;;;;;;17.09;100.00;100612.75;105617;1253;75795;-55
2023/11/08 06:31:35;;;;;;;9.00;6.00;;;;;;;17.13;100.00;100608.09;105574;1253;62055;-56
2023/11/08 06:34:03;;;;;;;10.90;6.20;;;;;;;17.31;100.00;100606.05;105671;1254;60093;-54
2023/11/08 06:36:32;;;;;;;8.30;5.30;;;;;;;17.43;100.00;100605.20;105718;1253;73088;-54
2023/11/08 06:39:00;;;;;;;9.70;5.60;;;;;;;17.50;100.00;100601.42;105702;1252;67320;-56
2023/11/08 06:41:28;;;;;;;8.30;5.00;;;;;;;17.64;100.00;100592.22;105807;1254;72734;-56
2023/11/08 06:43:55;;;;;;;7.70;5.40;;;;;;;17.75;100.00;100592.14;105717;1252;60110;-55
2023/11/08 06:46:23;;;;;;;6.10;4.40;;;;;;;17.85;100.00;100595.48;105483;1257;59545;-53
2023/11/08 06:48:54;;;;;;;8.30;5.00;;;;;;;18.06;100.00;100590.21;105701;1253;73059;-54
2023/11/08 06:51:22;;;;;;;;;;;;;;;18.41;100.00;100600.83;105793;1252;67020;-54
2023/11/08 06:53:50;;;;;;;8.00;4.80;;;;;;;18.71;100.00;100610.88;105718;1257;71967;-56
2023/11/08 06:56:18;;;;;;;6.70;4.70;;;;;;;18.89;100.00;100617.81;105667;1253;59747;-55
2023/11/08 06:58:47;;;;;;;7.00;4.80;;;;;;;18.81;100.00;100622.41;105667;1254;59978;-55
2023/11/08 07:01:15;;;;;;;7.20;5.20;;;;;;;18.66;100.00;100616.86;105767;1257;73120;-55
2023/11/08 07:03:43;;;;;;;6.90;5.10;;;;;;;18.70;100.00;100616.33;105668;1257;68955;-55
2023/11/08 07:06:11;;;;;;;8.20;4.90;;;;;;;18.88;100.00;100617.92;105703;1253;74005;-55
2023/11/08 07:08:40;;;;;;;8.60;4.40;;;;;;;19.00;100.00;100620.48;105730;1257;59669;-55
2023/11/08 07:11:08;;;;;;;7.80;4.90;;;;;;;18.83;100.00;100627.96;105700;1253;61558;-55
2023/11/08 07:13:37;;;;;;;6.90;4.10;;;;;;;18.51;100.00;100635.03;105642;1254;76036;-55
2023/11/08 07:16:06;;;;;;;7.10;4.50;;;;;;;18.16;100.00;100638.13;105710;1254;68443;-56
2023/11/08 07:18:34;;;;;;;7.50;4.60;;;;;;;17.79;100.00;100646.42;105587;1252;76511;-55
2023/11/08 07:21:02;;;;;;;7.40;4.70;;;;;;;17.47;100.00;100637.25;105535;1257;61497;-55
2023/11/08 07:23:30;;;;;;;7.30;4.60;;;;;;;17.19;100.00;100635.30;105597;1254;61858;-55
2023/11/08 07:25:58;;;;;;;7.40;4.50;;;;;;;17.02;100.00;100628.94;105588;1253;75831;-54
2023/11/08 07:28:27;;;;;;;7.90;4.70;;;;;;;16.91;100.00;100624.34;105606;1254;68454;-55
2023/11/08 07:30:55;;;;;;;7.70;4.80;;;;;;;16.80;100.00;100623.98;105627;1253;73726;-55
2023/11/08 07:33:23;;;;;;;6.70;4.20;;;;;;;16.68;100.00;100626.67;105569;1257;61570;-55
2023/11/08 07:35:51;;;;;;;10.50;4.30;;;;;;;16.48;100.00;100626.64;105729;1256;61518;-56
2023/11/08 07:38:19;;;;;;;8.10;4.30;;;;;;;16.17;100.00;100626.50;105606;1253;75268;-55
2023/11/08 07:40:47;;;;;;;5.50;3.90;;;;;;;15.89;100.00;100626.04;105591;1257;69701;-55
2023/11/08 07:43:15;;;;;;;9.90;5.50;;;;;;;15.71;100.00;100615.30;105569;1253;75107;-54
2023/11/08 07:45:42;;;;;;;6.80;4.10;;;;;;;15.63;100.00;100606.64;105616;1257;62533;-55
2023/11/08 07:48:10;;;;;;;6.80;3.60;;;;;;;15.79;100.00;100602.98;105569;1253;63522;-55
2023/11/08 07:50:38;;;;;;;6.90;4.60;;;;;;;16.01;100.00;100598.79;105652;1255;75790;-55
2023/11/08 07:53:07;;;;;;;7.10;4.10;;;;;;;16.04;100.00;100598.28;105560;1254;68552;-55
2023/11/08 07:55:35;;;;;;;6.80;4.20;;;;;;;15.88;100.00;100602.78;105781;1253;75895;-56
2023/11/08 07:58:02;;;;;;;7.60;4.50;;;;;;;15.65;100.00;100607.79;105431;1257;62631;-55
2023/11/08 08:00:31;;;;;;;8.80;5.20;;;;;;;15.44;100.00;100602.09;105611;1253;62194;-55
2023/11/08 08:02:59;;;;;;;7.30;4.90;;;;;;;15.24;100.00;100600.81;105544;1253;74943;-54
2023/11/08 08:05:27;;;;;;;7.50;5.10;;;;;;;15.14;100.00;100598.04;105837;1254;70900;-56
2023/11/08 08:07:55;;;;;;;9.30;5.60;;;;;;;15.13;100.00;100596.73;105452;1257;74145;-55
2023/11/08 08:10:25;;;;;;;7.70;4.50;;;;;;;15.15;100.00;100589.74;105575;1257;63827;-55
2023/11/08 08:12:53;;;;;;;10.30;5.30;;;;;;;15.21;100.00;100587.88;105687;1253;62175;-54
2023/11/08 08:15:24;;;;;;;7.80;5.00;;;;;;;15.28;100.00;100586.73;105567;1253;74720;-55
2023/11/08 08:17:52;;;;;;;7.30;4.80;;;;;;;15.35;100.00;100583.11;105566;1257;68515;-55
2023/11/08 08:20:20;;;;;;;10.60;5.20;;;;;;;15.47;100.00;100579.66;105643;1253;74193;-54
2023/11/08 08:22:48;;;;;;;9.20;5.60;;;;;;;15.60;100.00;100581.84;105536;1257;61511;-54
2023/11/08 08:25:16;;;;;;;8.70;5.70;;;;;;;15.76;100.00;100577.11;105554;1254;61041;-55
2023/11/08 08:27:44;;;;;;;10.00;6.00;;;;;;;15.87;100.00;100568.29;105712;1253;75443;-54
2023/11/08 08:30:14;;;;;;;11.10;5.90;;;;;;;15.96;100.00;100563.98;105754;1258;68716;-55
2023/11/08 08:32:50;;;;;;;11.80;5.90;;;;;;;16.01;100.00;100555.59;105690;1254;75206;-54
2023/11/08 08:35:18;;;;;;;10.90;6.00;;;;;;;16.02;100.00;100549.60;105757;1252;62803;-55
2023/11/08 08:37:46;;;;;;;9.90;5.50;;;;;;;16.11;100.00;100547.27;105715;1252;62585;-55
2023/11/08 08:40:14;;;;;;;13.30;6.20;;;;;;;16.24;100.00;100544.11;105623;1253;75829;-55
2023/11/08 08:42:43;;;;;;;12.10;6.70;;;;;;;16.44;100.00;100539.40;105691;1257;70353;-55
2023/11/08 08:45:11;;;;;;;15.80;7.40;;;;;;;16.64;100.00;100537.09;105753;1253;75252;-55
2023/11/08 08:47:40;;;;;;;9.00;5.30;;;;;;;16.79;100.00;100543.66;105583;1253;61671;-54
2023/11/08 08:50:12;;;;;;;8.10;4.60;;;;;;;16.86;100.00;100540.84;105644;1253;61469;-54
2023/11/08 08:52:41;;;;;;;8.80;4.60;;;;;;;16.87;100.00;100544.36;105749;1253;75578;-54
2023/11/08 08:55:10;;;;;;;8.70;4.60;;;;;;;16.94;100.00;100541.38;105824;1256;69230;-55
2023/11/08 08:57:41;;;;;;;9.10;4.30;;;;;;;17.03;100.00;100536.95;105716;1258;75147;-54
2023/11/08 09:00:09;;;;;;;14.50;5.80;;;;;;;17.12;100.00;100531.74;105480;1257;61510;-55
2023/11/08 09:02:37;;;;;;;11.90;7.00;;;;;;;17.24;100.00;100525.38;105613;1253;63056;-54
2023/11/08 09:05:09;;;;;;;18.90;10.80;;;;;;;17.38;100.00;100517.20;105556;1257;76915;-54
2023/11/08 09:07:37;;;;;;;25.30;16.30;;;;;;;17.49;100.00;100506.89;105670;1253;69217;-54
2023/11/08 09:10:06;;;;;;;20.20;13.00;;;;;;;17.55;100.00;100502.63;105517;1254;74072;-54
2023/11/08 09:12:34;;;;;;;31.60;19.50;;;;;;;17.50;100.00;100502.12;105625;1254;61910;-55
2023/11/08 09:15:04;;;;;;;18.60;8.20;;;;;;;17.40;100.00;100503.38;105536;1253;61303;-54
2023/11/08 09:17:32;;;;;;;14.50;7.40;;;;;;;17.27;100.00;100502.40;105543;1253;75199;-57
2023/11/08 09:20:04;;;;;;;11.20;5.90;;;;;;;17.15;100.00;100495.58;105653;1253;69965;-56
2023/11/08 09:22:32;;;;;;;8.20;4.50;;;;;;;17.06;100.00;100491.41;105651;1257;75259;-55
2023/11/08 09:24:59;;;;;;;13.60;6.40;;;;;;;17.01;100.00;100482.44;105492;1257;62621;-57
2023/11/08 09:27:27;;;;;;;12.40;6.20;;;;;;;17.00;100.00;100474.22;105652;1253;61389;-56
2023/11/08 09:29:55;;;;;;;14.50;7.90;;;;;;;16.96;100.00;100462.48;105674;1254;77163;-56
2023/11/08 09:32:25;;;;;;;12.50;6.10;;;;;;;16.92;100.00;100454.56;105709;1253;68647;-57
2023/11/08 09:34:53;;;;;;;8.30;5.00;;;;;;;16.88;100.00;100454.27;105736;1253;75218;-56
2023/11/08 09:37:22;;;;;;;8.60;4.20;;;;;;;16.79;100.00;100458.73;105695;1253;64132;-56
2023/11/08 09:39:51;;;;;;;11.80;4.90;;;;;;;16.68;100.00;100451.90;105677;1253;61522;-55
2023/11/08 09:42:21;;;;;;;9.70;4.50;;;;;;;16.57;100.00;100438.98;105780;1257;76318;-56
2023/11/08 09:44:49;;;;;;;9.60;4.70;;;;;;;16.48;100.00;100424.72;105658;1257;68906;-56
2023/11/08 09:47:17;;;;;;;12.30;4.80;;;;;;;16.41;100.00;100414.34;105461;1258;75402;-55
2023/11/08 09:49:51;;;;;;;10.20;4.30;;;;;;;16.34;100.00;100409.77;105486;1257;62592;-55
2023/11/08 09:52:22;;;;;;;8.90;4.10;;;;;;;16.33;100.00;100406.16;105319;1253;61514;-55
2023/11/08 09:54:50;;;;;;;10.30;5.30;;;;;;;16.37;100.00;100407.23;105663;1256;76370;-55
2023/11/08 09:57:18;;;;;;;10.80;6.10;;;;;;;16.46;100.00;100395.36;105593;1253;69280;-55
2023/11/08 09:59:46;;;;;;;13.50;5.40;;;;;;;16.58;100.00;100394.58;105457;1253;75153;-56
2023/11/08 10:02:14;;;;;;;14.50;8.00;;;;;;;16.68;100.00;100393.74;105462;1258;62569;-56
2023/11/08 10:04:42;;;;;;;13.60;7.70;;;;;;;16.81;100.00;100391.33;105524;1256;62352;-56
2023/11/08 10:07:14;;;;;;;11.70;4.30;;;;;;;16.92;100.00;100379.04;105481;1252;75252;-56
2023/11/08 10:09:42;;;;;;;11.00;3.60;;;;;;;16.94;100.00;100367.63;105756;1257;69326;-56
2023/11/08 10:12:11;;;;;;;9.30;3.70;;;;;;;16.90;100.00;100362.04;105606;1253;75291;-54
2023/11/08 10:14:44;;;;;;;9.40;3.40;;;;;;;16.85;100.00;100362.80;105562;1258;61810;-54
2023/11/08 10:17:12;;;;;;;6.80;2.80;;;;;;;16.80;100.00;100354.77;105571;1253;63349;-54
2023/11/08 10:19:59;;;;;;;6.80;3.40;;;;;;;16.76;100.00;100356.13;105385;1253;75605;-56
2023/11/08 10:22:28;;;;;;;10.40;4.10;;;;;;;16.78;100.00;100350.08;105717;1255;68087;-55
2023/11/08 10:25:00;;;;;;;5.60;2.80;;;;;;;16.84;100.00;100346.40;105613;1253;74516;-56
2023/11/08 10:27:31;;;;;;;4.70;2.40;;;;;;;16.98;100.00;100349.71;105703;1253;62699;-56
2023/11/08 10:30:16;;;;;;;7.70;2.70;;;;;;;17.09;100.00;100347.79;105438;1257;62311;-55
2023/11/08 10:32:43;;;;;;;5.40;2.60;;;;;;;17.15;100.00;100337.89;105464;1253;75246;-56
2023/11/08 10:35:20;;;;;;;6.20;2.30;;;;;;;17.18;100.00;100329.38;105404;1257;67447;-56
2023/11/08 10:37:48;;;;;;;5.40;2.40;;;;;;;17.22;100.00;100319.80;105416;1257;75442;-56
2023/11/08 10:40:17;;;;;;;6.50;3.00;;;;;;;17.26;100.00;100313.94;105476;1253;63633;-56
2023/11/08 10:42:49;;;;;;;5.50;3.30;;;;;;;17.24;100.00;100315.52;105662;1253;63473;-57
2023/11/08 10:45:21;;;;;;;7.30;3.20;;;;;;;17.15;100.00;100312.88;105487;1258;76326;-56
2023/11/08 10:47:49;;;;;;;16.70;10.50;;;;;;;17.04;100.00;100312.55;105491;1255;68270;-56
2023/11/08 10:50:18;;;;;;;20.30;11.40;;;;;;;16.95;100.00;100320.25;105471;1254;75232;-56
2023/11/08 10:52:46;;;;;;;19.20;10.70;;;;;;;16.87;100.00;100315.98;105437;1254;62361;-56
2023/11/08 10:55:15;;;;;;;17.60;9.70;;;;;;;16.78;100.00;100310.46;105567;1253;62581;-56
2023/11/08 10:57:51;;;;;;;18.40;9.60;;;;;;;16.65;100.00;100311.37;105409;1252;75246;-56
2023/11/08 11:00:20;;;;;;;20.50;11.30;;;;;;;16.56;100.00;100305.53;105396;1258;69290;-56
2023/11/08 11:02:50;;;;;;;25.70;13.80;;;;;;;16.50;100.00;100306.20;105468;1258;74684;-56
2023/11/08 11:05:23;;;;;;;26.80;16.10;;;;;;;16.51;100.00;100298.61;105214;1253;62800;-56
2023/11/08 11:07:53;;;;;;;34.70;21.20;;;;;;;16.54;100.00;100290.73;105382;1253;62673;-56
2023/11/08 11:10:21;;;;;;;24.20;15.30;;;;;;;16.55;100.00;100284.77;105751;1252;76335;-55
2023/11/08 11:13:04;;;;;;;20.40;11.10;;;;;;;16.57;100.00;100272.66;105852;1252;68733;-55
2023/11/08 11:15:32;;;;;;;22.90;12.50;;;;;;;16.60;100.00;100261.59;105519;1254;75130;-56
2023/11/08 11:18:00;;;;;;;25.20;14.50;;;;;;;16.66;100.00;100259.85;105535;1253;62534;-56
2023/11/08 11:20:34;;;;;;;18.70;9.80;;;;;;;16.73;100.00;100257.54;105190;1259;62277;-55
2023/11/08 11:23:04;;;;;;;13.70;8.70;;;;;;;16.82;100.00;100250.73;105330;1259;77552;-55
2023/11/08 11:25:46;;;;;;;7.40;3.10;;;;;;;16.89;99.52;100246.73;105500;1253;70448;-55
2023/11/08 11:28:14;;;;;;;8.10;4.10;;;;;;;16.92;97.95;100236.44;105375;1253;75578;-56
2023/11/08 11:30:42;;;;;;;11.30;6.00;;;;;;;16.97;99.41;100235.14;105413;1253;61910;-55
2023/11/08 11:33:10;;;;;;;10.10;4.90;;;;;;;17.06;99.46;100231.05;105459;1257;61651;-55
2023/11/08 11:35:42;;;;;;;9.30;2.80;;;;;;;17.11;95.68;100225.73;105484;1253;75248;-55
2023/11/08 11:38:16;;;;;;;11.50;3.90;;;;;;;17.11;93.97;100215.48;105448;1257;68572;-56
2023/11/08 11:40:48;;;;;;;10.90;4.50;;;;;;;17.10;95.33;100217.02;105447;1258;75716;-56
2023/11/08 11:43:32;;;;;;;;;;;;;;;17.05;94.45;100219.18;105190;1261;61924;-56